createdAt,value
2018-05-14T00:00:06.494Z,1004.92
2018-05-14T00:01:06.487Z,1004.85
2018-05-14T00:02:06.479Z,1004.90
2018-05-14T00:03:06.478Z,1004.88
2018-05-14T00:04:06.490Z,1004.88
2018-05-14T00:05:06.463Z,1004.84
2018-05-14T00:06:06.465Z,1004.85
2018-05-14T00:07:06.459Z,1004.85
2018-05-14T00:08:06.447Z,1004.83
2018-05-14T00:09:06.463Z,1004.81
2018-05-14T00:10:06.438Z,1004.80
2018-05-14T00:11:06.437Z,1004.83
2018-05-14T00:12:06.429Z,1004.83
2018-05-14T00:13:06.421Z,1004.83
2018-05-14T00:14:06.418Z,1004.84
2018-05-14T00:15:06.414Z,1004.81
2018-05-14T00:16:06.409Z,1004.82
2018-05-14T00:17:06.401Z,1004.82
2018-05-14T00:18:08.147Z,1004.83
2018-05-14T00:19:06.392Z,1004.82
2018-05-14T00:20:06.391Z,1004.81
2018-05-14T00:21:06.387Z,1004.78
2018-05-14T00:22:06.373Z,1004.82
2018-05-14T00:23:06.371Z,1004.81
2018-05-14T00:24:06.365Z,1004.79
2018-05-14T00:25:06.357Z,1004.80
2018-05-14T00:26:08.146Z,1004.77
2018-05-14T00:27:06.349Z,1004.74
2018-05-14T00:28:08.154Z,1004.78
2018-05-14T00:29:06.340Z,1004.79
2018-05-14T00:30:06.337Z,1004.78
2018-05-14T00:31:06.334Z,1004.73
2018-05-14T00:32:06.325Z,1004.69
2018-05-14T00:33:06.321Z,1004.68
2018-05-14T00:34:06.315Z,1004.63
2018-05-14T00:35:06.309Z,1004.59
2018-05-14T00:36:06.304Z,1004.58
2018-05-14T00:37:06.299Z,1004.57
2018-05-14T00:38:06.297Z,1004.52
2018-05-14T00:39:06.286Z,1004.53
2018-05-14T00:40:06.289Z,1004.50
2018-05-14T00:41:06.291Z,1004.50
2018-05-14T00:42:06.274Z,1004.43
2018-05-14T00:43:06.269Z,1004.42
2018-05-14T00:44:06.264Z,1004.43
2018-05-14T00:45:06.265Z,1004.43
2018-05-14T00:46:06.258Z,1004.45
2018-05-14T00:47:06.246Z,1004.45
2018-05-14T00:48:06.248Z,1004.47
2018-05-14T00:49:06.247Z,1004.40
2018-05-14T00:50:06.234Z,1004.40
2018-05-14T00:51:06.231Z,1004.39
2018-05-14T00:52:06.220Z,1004.40
2018-05-14T00:53:06.217Z,1004.39
2018-05-14T00:54:06.216Z,1004.37
2018-05-14T00:55:06.222Z,1004.39
2018-05-14T00:56:06.204Z,1004.41
2018-05-14T00:57:06.198Z,1004.36
2018-05-14T00:58:08.166Z,1004.37
2018-05-14T00:59:09.170Z,1004.37
2018-05-14T01:00:08.172Z,1004.35
2018-05-14T01:01:08.167Z,1004.33
2018-05-14T01:02:06.173Z,1004.33
2018-05-14T01:03:06.169Z,1004.34
2018-05-14T01:04:06.162Z,1004.34
2018-05-14T01:05:06.155Z,1004.32
2018-05-14T01:06:06.150Z,1004.31
2018-05-14T01:07:06.148Z,1004.28
2018-05-14T01:08:06.138Z,1004.28
2018-05-14T01:09:06.134Z,1004.25
2018-05-14T01:10:06.126Z,1004.29
2018-05-14T01:11:06.120Z,1004.23
2018-05-14T01:12:06.133Z,1004.25
2018-05-14T01:13:06.108Z,1004.21
2018-05-14T01:14:06.105Z,1004.21
2018-05-14T01:15:06.113Z,1004.23
2018-05-14T01:16:06.091Z,1004.24
2018-05-14T01:17:06.090Z,1004.24
2018-05-14T01:18:06.086Z,1004.27
2018-05-14T01:19:06.078Z,1004.29
2018-05-14T01:20:06.075Z,1004.30
2018-05-14T01:21:06.090Z,1004.26
2018-05-14T01:22:06.063Z,1004.30
2018-05-14T01:23:06.065Z,1004.29
2018-05-14T01:24:06.051Z,1004.29
2018-05-14T01:25:06.053Z,1004.28
2018-05-14T01:26:06.045Z,1004.30
2018-05-14T01:27:06.034Z,1004.28
2018-05-14T01:28:07.695Z,1004.29
2018-05-14T01:29:06.031Z,1004.32
2018-05-14T01:30:06.020Z,1004.29
2018-05-14T01:31:06.018Z,1004.26
2018-05-14T01:32:06.012Z,1004.25
2018-05-14T01:33:06.005Z,1004.27
2018-05-14T01:34:06.001Z,1004.22
2018-05-14T01:35:05.994Z,1004.23
2018-05-14T01:36:05.985Z,1004.20
2018-05-14T01:37:05.985Z,1004.24
2018-05-14T01:38:05.986Z,1004.23
2018-05-14T01:39:05.974Z,1004.25
2018-05-14T01:40:05.969Z,1004.25
2018-05-14T01:41:05.970Z,1004.29
2018-05-14T01:42:05.965Z,1004.27
2018-05-14T01:43:05.951Z,1004.24
2018-05-14T01:44:05.948Z,1004.25
2018-05-14T01:45:05.952Z,1004.25
2018-05-14T01:46:05.942Z,1004.28
2018-05-14T01:47:05.932Z,1004.30
2018-05-14T01:48:05.933Z,1004.30
2018-05-14T01:49:05.923Z,1004.33
2018-05-14T01:50:05.915Z,1004.32
2018-05-14T01:51:05.911Z,1004.33
2018-05-14T01:52:05.903Z,1004.34
2018-05-14T01:53:05.907Z,1004.32
2018-05-14T01:54:05.895Z,1004.35
2018-05-14T01:55:05.887Z,1004.31
2018-05-14T01:56:05.879Z,1004.33
2018-05-14T01:57:05.881Z,1004.32
2018-05-14T01:58:05.875Z,1004.33
2018-05-14T01:59:05.872Z,1004.31
2018-05-14T02:00:05.861Z,1004.36
2018-05-14T02:01:05.859Z,1004.32
2018-05-14T02:02:05.852Z,1004.35
2018-05-14T02:03:05.855Z,1004.29
2018-05-14T02:04:05.864Z,1004.32
2018-05-14T02:05:05.841Z,1004.28
2018-05-14T02:06:05.832Z,1004.26
2018-05-14T02:07:05.824Z,1004.24
2018-05-14T02:08:05.822Z,1004.27
2018-05-14T02:09:05.814Z,1004.25
2018-05-14T02:10:05.810Z,1004.26
2018-05-14T02:11:05.801Z,1004.29
2018-05-14T02:12:05.799Z,1004.32
2018-05-14T02:13:05.792Z,1004.29
2018-05-14T02:14:07.683Z,1004.28
2018-05-14T02:15:05.787Z,1004.24
2018-05-14T02:16:05.775Z,1004.29
2018-05-14T02:17:05.773Z,1004.27
2018-05-14T02:18:05.769Z,1004.27
2018-05-14T02:19:05.770Z,1004.27
2018-05-14T02:20:05.762Z,1004.27
2018-05-14T02:21:05.753Z,1004.31
2018-05-14T02:22:05.746Z,1004.31
2018-05-14T02:23:05.738Z,1004.31
2018-05-14T02:24:07.694Z,1004.32
2018-05-14T02:25:05.733Z,1004.29
2018-05-14T02:26:05.727Z,1004.32
2018-05-14T02:27:05.718Z,1004.32
2018-05-14T02:28:07.690Z,1004.31
2018-05-14T02:29:05.721Z,1004.33
2018-05-14T02:30:05.704Z,1004.33
2018-05-14T02:31:05.704Z,1004.31
2018-05-14T02:32:07.193Z,1004.34
2018-05-14T02:33:05.694Z,1004.32
2018-05-14T02:34:05.684Z,1004.33
2018-05-14T02:35:05.679Z,1004.34
2018-05-14T02:36:05.670Z,1004.33
2018-05-14T02:37:05.668Z,1004.29
2018-05-14T02:38:05.669Z,1004.27
2018-05-14T02:39:05.658Z,1004.26
2018-05-14T02:40:05.657Z,1004.27
2018-05-14T02:41:05.645Z,1004.24
2018-05-14T02:42:05.657Z,1004.25
2018-05-14T02:43:05.632Z,1004.22
2018-05-14T02:44:05.628Z,1004.26
2018-05-14T02:45:05.623Z,1004.30
2018-05-14T02:46:05.617Z,1004.26
2018-05-14T02:47:05.613Z,1004.26
2018-05-14T02:48:05.606Z,1004.30
2018-05-14T02:49:05.608Z,1004.30
2018-05-14T02:50:05.599Z,1004.29
2018-05-14T02:51:05.590Z,1004.31
2018-05-14T02:52:05.585Z,1004.33
2018-05-14T02:53:05.589Z,1004.28
2018-05-14T02:54:05.590Z,1004.31
2018-05-14T02:55:05.564Z,1004.34
2018-05-14T02:56:05.565Z,1004.32
2018-05-14T02:57:05.557Z,1004.31
2018-05-14T02:58:05.553Z,1004.31
2018-05-14T02:59:05.555Z,1004.27
2018-05-14T03:00:05.542Z,1004.25
2018-05-14T03:01:05.537Z,1004.27
2018-05-14T03:02:05.539Z,1004.27
2018-05-14T03:03:05.541Z,1004.23
2018-05-14T03:04:05.526Z,1004.26
2018-05-14T03:05:05.530Z,1004.28
2018-05-14T03:06:05.523Z,1004.28
2018-05-14T03:07:07.206Z,1004.24
2018-05-14T03:08:05.505Z,1004.24
2018-05-14T03:09:05.496Z,1004.25
2018-05-14T03:10:05.498Z,1004.24
2018-05-14T03:11:05.485Z,1004.25
2018-05-14T03:12:05.491Z,1004.28
2018-05-14T03:13:05.486Z,1004.25
2018-05-14T03:14:05.470Z,1004.24
2018-05-14T03:15:05.468Z,1004.24
2018-05-14T03:16:05.455Z,1004.20
2018-05-14T03:17:05.455Z,1004.21
2018-05-14T03:18:05.454Z,1004.19
2018-05-14T03:19:05.441Z,1004.18
2018-05-14T03:20:05.437Z,1004.22
2018-05-14T03:21:05.431Z,1004.16
2018-05-14T03:22:05.426Z,1004.20
2018-05-14T03:23:05.443Z,1004.18
2018-05-14T03:24:05.412Z,1004.20
2018-05-14T03:25:05.410Z,1004.20
2018-05-14T03:26:05.415Z,1004.19
2018-05-14T03:27:05.396Z,1004.19
2018-05-14T03:28:05.394Z,1004.22
2018-05-14T03:29:07.216Z,1004.22
2018-05-14T03:30:05.381Z,1004.20
2018-05-14T03:31:05.379Z,1004.23
2018-05-14T03:32:05.372Z,1004.23
2018-05-14T03:33:05.365Z,1004.24
2018-05-14T03:34:05.364Z,1004.21
2018-05-14T03:35:07.218Z,1004.23
2018-05-14T03:36:05.350Z,1004.22
2018-05-14T03:37:05.347Z,1004.24
2018-05-14T03:38:05.350Z,1004.27
2018-05-14T03:39:05.336Z,1004.25
2018-05-14T03:40:05.334Z,1004.26
2018-05-14T03:41:05.329Z,1004.28
2018-05-14T03:42:05.318Z,1004.29
2018-05-14T03:43:05.309Z,1004.25
2018-05-14T03:44:05.306Z,1004.29
2018-05-14T03:45:05.296Z,1004.25
2018-05-14T03:46:05.293Z,1004.22
2018-05-14T03:47:05.287Z,1004.27
2018-05-14T03:48:05.290Z,1004.25
2018-05-14T03:49:05.281Z,1004.29
2018-05-14T03:50:05.274Z,1004.27
2018-05-14T03:51:05.277Z,1004.28
2018-05-14T03:52:05.262Z,1004.30
2018-05-14T03:53:05.255Z,1004.29
2018-05-14T03:54:05.254Z,1004.32
2018-05-14T03:55:05.250Z,1004.33
2018-05-14T03:56:05.243Z,1004.33
2018-05-14T03:57:05.238Z,1004.36
2018-05-14T03:58:05.229Z,1004.37
2018-05-14T03:59:05.226Z,1004.39
2018-05-14T04:00:05.218Z,1004.40
2018-05-14T04:01:05.219Z,1004.42
2018-05-14T04:02:05.215Z,1004.42
2018-05-14T04:03:05.199Z,1004.44
2018-05-14T04:04:05.199Z,1004.44
2018-05-14T04:05:05.192Z,1004.44
2018-05-14T04:06:05.188Z,1004.45
2018-05-14T04:07:05.176Z,1004.47
2018-05-14T04:08:05.173Z,1004.46
2018-05-14T04:09:05.165Z,1004.43
2018-05-14T04:10:05.163Z,1004.46
2018-05-14T04:11:05.162Z,1004.46
2018-05-14T04:12:05.153Z,1004.44
2018-05-14T04:13:05.149Z,1004.44
2018-05-14T04:14:05.145Z,1004.43
2018-05-14T04:15:05.136Z,1004.43
2018-05-14T04:16:05.130Z,1004.40
2018-05-14T04:17:05.132Z,1004.44
2018-05-14T04:18:05.117Z,1004.44
2018-05-14T04:19:05.126Z,1004.44
2018-05-14T04:20:05.113Z,1004.42
2018-05-14T04:21:05.103Z,1004.45
2018-05-14T04:22:05.101Z,1004.44
2018-05-14T04:23:05.094Z,1004.41
2018-05-14T04:24:05.092Z,1004.43
2018-05-14T04:25:05.081Z,1004.43
2018-05-14T04:26:05.082Z,1004.44
2018-05-14T04:27:05.072Z,1004.45
2018-05-14T04:28:05.087Z,1004.41
2018-05-14T04:29:05.060Z,1004.43
2018-05-14T04:30:05.057Z,1004.39
2018-05-14T04:31:05.050Z,1004.45
2018-05-14T04:32:05.044Z,1004.43
2018-05-14T04:33:05.041Z,1004.45
2018-05-14T04:34:05.039Z,1004.48
2018-05-14T04:35:05.036Z,1004.46
2018-05-14T04:36:05.034Z,1004.53
2018-05-14T04:37:05.023Z,1004.52
2018-05-14T04:38:05.019Z,1004.55
2018-05-14T04:39:05.007Z,1004.59
2018-05-14T04:40:05.005Z,1004.62
2018-05-14T04:41:05.000Z,1004.55
2018-05-14T04:42:04.991Z,1004.60
2018-05-14T04:43:04.985Z,1004.55
2018-05-14T04:44:04.992Z,1004.58
2018-05-14T04:45:05.008Z,1004.61
2018-05-14T04:46:04.972Z,1004.59
2018-05-14T04:47:04.964Z,1004.60
2018-05-14T04:48:04.979Z,1004.66
2018-05-14T04:49:04.955Z,1004.66
2018-05-14T04:50:04.947Z,1004.64
2018-05-14T04:51:04.943Z,1004.64
2018-05-14T04:52:04.941Z,1004.62
2018-05-14T04:53:04.933Z,1004.60
2018-05-14T04:54:04.950Z,1004.56
2018-05-14T04:55:04.923Z,1004.63
2018-05-14T04:56:04.916Z,1004.63
2018-05-14T04:57:04.917Z,1004.60
2018-05-14T04:58:04.908Z,1004.61
2018-05-14T04:59:04.903Z,1004.61
2018-05-14T05:00:04.897Z,1004.60
2018-05-14T05:01:04.890Z,1004.59
2018-05-14T05:02:04.883Z,1004.62
2018-05-14T05:03:06.747Z,1004.60
2018-05-14T05:04:04.875Z,1004.64
2018-05-14T05:05:04.871Z,1004.63
2018-05-14T05:06:04.863Z,1004.63
2018-05-14T05:07:04.858Z,1004.66
2018-05-14T05:08:04.852Z,1004.68
2018-05-14T05:09:04.850Z,1004.71
2018-05-14T05:10:04.843Z,1004.71
2018-05-14T05:11:04.837Z,1004.66
2018-05-14T05:12:04.836Z,1004.71
2018-05-14T05:13:04.828Z,1004.65
2018-05-14T05:14:04.825Z,1004.67
2018-05-14T05:16:40.486Z,1004.69
2018-05-14T05:17:38.224Z,1004.69
2018-05-14T05:19:33.220Z,1004.69
2018-05-14T05:20:31.085Z,1004.70
2018-05-14T05:22:24.946Z,1004.69
2018-05-14T05:23:25.399Z,1004.71
2018-05-14T05:25:52.373Z,1004.69
2018-05-14T05:26:19.578Z,1004.70
2018-05-14T05:30:10.925Z,1004.72
2018-05-14T05:30:45.019Z,1004.70
2018-05-14T05:34:37.341Z,1004.80
2018-05-14T05:35:11.171Z,1004.82
2018-05-14T05:37:04.064Z,1004.84
2018-05-14T05:38:03.606Z,1004.88
2018-05-14T05:40:28.084Z,1004.88
2018-05-14T05:40:58.732Z,1004.89
2018-05-14T05:43:01.419Z,1004.87
2018-05-14T05:43:51.784Z,1004.88
2018-05-14T05:47:50.592Z,1004.91
2018-05-14T05:48:18.602Z,1004.94
2018-05-14T05:50:12.076Z,1004.92
2018-05-14T05:52:36.051Z,1004.90
2018-05-14T05:53:26.533Z,1004.88
2018-05-14T05:55:21.941Z,1004.89
2018-05-14T05:56:21.175Z,1004.90
2018-05-14T05:58:42.265Z,1004.92
2018-05-14T05:59:15.285Z,1004.95
2018-05-14T06:01:17.694Z,1004.92
2018-05-14T06:02:08.022Z,1004.96
2018-05-14T06:03:07.983Z,1005.09
2018-05-14T06:04:07.998Z,1005.03
2018-05-14T06:05:09.433Z,1005.06
2018-05-14T06:06:09.663Z,1005.06
2018-05-14T06:07:08.864Z,1005.11
2018-05-14T06:08:08.344Z,1005.08
2018-05-14T06:09:08.333Z,1005.10
2018-05-14T06:10:08.366Z,1005.07
2018-05-14T06:11:08.341Z,1005.08
2018-05-14T06:12:09.594Z,1005.08
2018-05-14T06:13:09.159Z,1005.09
2018-05-14T06:14:08.824Z,1005.14
2018-05-14T06:15:08.332Z,1005.09
2018-05-14T06:16:08.869Z,1005.07
2018-05-14T06:17:08.814Z,1005.09
2018-05-14T06:18:09.147Z,1005.07
2018-05-14T06:19:09.098Z,1005.07
2018-05-14T06:20:08.835Z,1005.08
2018-05-14T06:21:08.308Z,1005.09
2018-05-14T06:22:08.330Z,1005.14
2018-05-14T06:23:08.306Z,1005.13
2018-05-14T06:24:09.676Z,1005.15
2018-05-14T06:25:08.246Z,1005.11
2018-05-14T06:26:07.811Z,1005.12
2018-05-14T06:27:07.819Z,1005.10
2018-05-14T06:28:07.795Z,1005.09
2018-05-14T06:29:07.799Z,1005.13
2018-05-14T06:30:07.791Z,1005.15
2018-05-14T06:31:07.790Z,1005.18
2018-05-14T06:32:07.784Z,1005.13
2018-05-14T06:33:07.781Z,1005.19
2018-05-14T06:34:07.789Z,1005.16
2018-05-14T06:35:07.782Z,1005.21
2018-05-14T06:36:07.774Z,1005.21
2018-05-14T06:37:07.798Z,1005.24
2018-05-14T06:38:07.769Z,1005.24
2018-05-14T06:39:07.768Z,1005.25
2018-05-14T06:40:07.763Z,1005.22
2018-05-14T06:41:31.284Z,1005.25
2018-05-14T06:43:41.724Z,1005.30
2018-05-14T06:44:41.843Z,1005.26
2018-05-14T06:46:34.842Z,1005.30
2018-05-14T06:47:33.814Z,1005.30
2018-05-14T06:49:28.719Z,1005.33
2018-05-14T06:50:27.676Z,1005.29
2018-05-14T06:52:22.554Z,1005.32
2018-05-14T06:53:21.332Z,1005.32
2018-05-14T06:54:21.310Z,1005.32
2018-05-14T06:55:21.344Z,1005.32
2018-05-14T06:56:21.423Z,1005.31
2018-05-14T06:57:22.314Z,1005.31
2018-05-14T06:58:21.281Z,1005.31
2018-05-14T06:59:21.275Z,1005.26
2018-05-14T07:00:21.283Z,1005.27
2018-05-14T07:01:21.278Z,1005.28
2018-05-14T07:02:21.279Z,1005.28
2018-05-14T07:03:21.274Z,1005.32
2018-05-14T07:04:21.280Z,1005.34
2018-05-14T07:10:21.676Z,1005.42
2018-05-14T07:11:00.335Z,1005.36
2018-05-14T07:13:19.424Z,1005.42
2018-05-14T07:13:58.126Z,1005.43
2018-05-14T07:14:56.085Z,1005.44
2018-05-14T07:15:56.137Z,1005.43
2018-05-14T07:16:56.095Z,1005.46
2018-05-14T07:17:58.100Z,1005.46
2018-05-14T07:18:58.010Z,1005.48
2018-05-14T07:19:57.454Z,1005.47
2018-05-14T07:20:56.021Z,1005.52
2018-05-14T07:21:56.050Z,1005.46
2018-05-14T07:22:56.036Z,1005.52
2018-05-14T07:23:56.028Z,1005.53
2018-05-14T07:24:56.024Z,1005.51
2018-05-14T07:25:56.027Z,1005.50
2018-05-14T07:26:56.058Z,1005.49
2018-05-14T07:27:56.035Z,1005.50
2018-05-14T07:28:56.041Z,1005.51
2018-05-14T07:29:56.047Z,1005.53
2018-05-14T07:30:56.045Z,1005.57
2018-05-14T07:31:56.048Z,1005.51
2018-05-14T07:32:56.052Z,1005.55
2018-05-14T07:33:56.060Z,1005.57
2018-05-14T07:34:56.056Z,1005.54
2018-05-14T07:35:56.067Z,1005.54
2018-05-14T07:36:56.067Z,1005.61
2018-05-14T07:37:56.073Z,1005.59
2018-05-14T07:38:56.075Z,1005.67
2018-05-14T07:39:56.080Z,1005.64
2018-05-14T07:40:57.737Z,1005.67
2018-05-14T07:41:57.736Z,1005.67
2018-05-14T07:42:56.094Z,1005.66
2018-05-14T07:43:56.096Z,1005.65
2018-05-14T07:44:56.097Z,1005.69
2018-05-14T07:45:57.789Z,1005.74
2018-05-14T07:46:57.743Z,1005.73
2018-05-14T07:47:56.113Z,1005.74
2018-05-14T07:48:56.115Z,1005.69
2018-05-14T07:49:56.121Z,1005.66
2018-05-14T07:50:56.126Z,1005.71
2018-05-14T07:51:56.132Z,1005.71
2018-05-14T07:52:56.142Z,1005.67
2018-05-14T07:53:56.140Z,1005.67
2018-05-14T07:54:56.144Z,1005.69
2018-05-14T07:55:56.148Z,1005.65
2018-05-14T07:56:56.154Z,1005.68
2018-05-14T07:57:56.158Z,1005.69
2018-05-14T07:58:56.178Z,1005.64
2018-05-14T07:59:56.175Z,1005.64
2018-05-14T08:00:56.182Z,1005.66
2018-05-14T08:01:56.183Z,1005.70
2018-05-14T08:02:56.183Z,1005.68
2018-05-14T08:03:56.199Z,1005.71
2018-05-14T08:04:56.200Z,1005.71
2018-05-14T08:05:56.204Z,1005.71
2018-05-14T08:06:56.202Z,1005.74
2018-05-14T08:07:56.215Z,1005.72
2018-05-14T08:08:56.216Z,1005.73
2018-05-14T08:09:56.225Z,1005.74
2018-05-14T08:10:56.231Z,1005.74
2018-05-14T08:11:56.239Z,1005.76
2018-05-14T08:12:56.242Z,1005.80
2018-05-14T08:13:56.248Z,1005.81
2018-05-14T08:14:56.255Z,1005.80
2018-05-14T08:15:56.263Z,1005.83
2018-05-14T08:16:56.272Z,1005.78
2018-05-14T08:17:56.275Z,1005.76
2018-05-14T08:18:56.281Z,1005.80
2018-05-14T08:19:56.287Z,1005.84
2018-05-14T08:20:56.293Z,1005.84
2018-05-14T08:21:56.301Z,1005.82
2018-05-14T08:22:56.306Z,1005.81
2018-05-14T08:23:56.309Z,1005.79
2018-05-14T08:24:56.317Z,1005.82
2018-05-14T08:25:56.418Z,1005.80
2018-05-14T08:26:56.329Z,1005.78
2018-05-14T08:27:56.338Z,1005.79
2018-05-14T08:28:56.346Z,1005.76
2018-05-14T08:29:56.353Z,1005.78
2018-05-14T08:30:56.358Z,1005.78
2018-05-14T08:31:56.368Z,1005.76
2018-05-14T08:32:56.375Z,1005.76
2018-05-14T08:33:56.385Z,1005.72
2018-05-14T08:34:56.389Z,1005.74
2018-05-14T08:35:56.395Z,1005.77
2018-05-14T08:36:56.403Z,1005.79
2018-05-14T08:37:56.412Z,1005.77
2018-05-14T08:38:56.423Z,1005.76
2018-05-14T08:39:56.429Z,1005.76
2018-05-14T08:40:56.436Z,1005.81
2018-05-14T08:41:56.446Z,1005.80
2018-05-14T08:42:56.449Z,1005.78
2018-05-14T08:43:56.467Z,1005.76
2018-05-14T08:44:58.284Z,1005.80
2018-05-14T08:45:56.474Z,1005.81
2018-05-14T08:46:56.481Z,1005.83
2018-05-14T08:47:56.585Z,1005.80
2018-05-14T08:48:56.595Z,1005.86
2018-05-14T08:49:56.504Z,1005.83
2018-05-14T08:50:56.509Z,1005.85
2018-05-14T08:51:56.517Z,1005.87
2018-05-14T08:52:56.528Z,1005.84
2018-05-14T08:53:56.534Z,1005.84
2018-05-14T08:54:56.542Z,1005.89
2018-05-14T08:55:56.549Z,1005.85
2018-05-14T08:56:56.560Z,1005.84
2018-05-14T08:57:56.569Z,1005.86
2018-05-14T08:58:56.578Z,1005.90
2018-05-14T08:59:56.588Z,1005.87
2018-05-14T09:00:58.297Z,1005.89
2018-05-14T09:01:56.597Z,1005.90
2018-05-14T09:02:56.608Z,1005.91
2018-05-14T09:03:56.615Z,1005.91
2018-05-14T09:04:56.625Z,1005.88
2018-05-14T09:05:56.636Z,1005.87
2018-05-14T09:06:56.638Z,1005.88
2018-05-14T09:07:56.646Z,1005.88
2018-05-14T09:08:58.298Z,1005.94
2018-05-14T09:09:56.664Z,1005.87
2018-05-14T09:10:56.670Z,1005.86
2018-05-14T09:11:56.678Z,1005.85
2018-05-14T09:12:56.694Z,1005.87
2018-05-14T09:13:56.699Z,1005.88
2018-05-14T09:14:56.707Z,1005.85
2018-05-14T09:15:56.715Z,1005.83
2018-05-14T09:16:56.726Z,1005.79
2018-05-14T09:17:56.730Z,1005.82
2018-05-14T09:18:56.738Z,1005.89
2018-05-14T09:19:56.757Z,1005.85
2018-05-14T09:20:56.759Z,1005.89
2018-05-14T09:21:58.312Z,1005.88
2018-05-14T09:22:56.773Z,1005.88
2018-05-14T09:23:56.788Z,1005.88
2018-05-14T09:24:56.796Z,1005.86
2018-05-14T09:25:56.801Z,1005.84
2018-05-14T09:26:56.802Z,1005.85
2018-05-14T09:27:56.819Z,1005.84
2018-05-14T09:28:56.818Z,1005.88
2018-05-14T09:29:56.830Z,1005.89
2018-05-14T09:30:56.839Z,1005.84
2018-05-14T09:31:56.847Z,1005.90
2018-05-14T09:32:56.859Z,1005.86
2018-05-14T09:33:58.822Z,1005.88
2018-05-14T09:34:58.821Z,1005.83
2018-05-14T09:35:56.880Z,1005.81
2018-05-14T09:36:56.895Z,1005.83
2018-05-14T09:37:56.902Z,1005.83
2018-05-14T09:38:56.914Z,1005.81
2018-05-14T09:39:56.914Z,1005.82
2018-05-14T09:40:56.929Z,1005.85
2018-05-14T09:41:56.937Z,1005.86
2018-05-14T09:42:56.947Z,1005.86
2018-05-14T09:43:56.950Z,1005.80
2018-05-14T09:44:56.966Z,1005.82
2018-05-14T09:45:58.831Z,1005.84
2018-05-14T09:46:58.829Z,1005.82
2018-05-14T09:47:56.996Z,1005.80
2018-05-14T09:48:57.005Z,1005.79
2018-05-14T09:49:57.011Z,1005.84
2018-05-14T09:50:57.018Z,1005.83
2018-05-14T09:51:57.040Z,1005.81
2018-05-14T09:52:57.111Z,1005.80
2018-05-14T09:53:57.045Z,1005.80
2018-05-14T09:54:57.054Z,1005.84
2018-05-14T09:55:57.067Z,1005.82
2018-05-14T09:56:57.074Z,1005.87
2018-05-14T09:57:57.087Z,1005.87
2018-05-14T09:58:57.093Z,1005.85
2018-05-14T09:59:57.102Z,1005.82
2018-05-14T10:00:57.116Z,1005.80
2018-05-14T10:01:57.129Z,1005.84
2018-05-14T10:02:57.141Z,1005.89
2018-05-14T10:03:57.139Z,1005.88
2018-05-14T10:04:57.155Z,1005.86
2018-05-14T10:05:57.627Z,1005.91
2018-05-14T10:06:57.527Z,1005.86
2018-05-14T10:07:58.736Z,1005.86
2018-05-14T10:08:57.262Z,1005.84
2018-05-14T10:09:57.207Z,1005.89
2018-05-14T10:10:57.223Z,1005.84
2018-05-14T10:11:57.256Z,1005.82
2018-05-14T10:12:57.297Z,1005.84
2018-05-14T10:13:57.260Z,1005.87
2018-05-14T10:14:57.258Z,1005.84
2018-05-14T10:15:57.275Z,1005.87
2018-05-14T10:16:57.293Z,1005.87
2018-05-14T10:17:57.304Z,1005.81
2018-05-14T10:18:57.356Z,1005.76
2018-05-14T10:19:57.329Z,1005.78
2018-05-14T10:20:57.348Z,1005.82
2018-05-14T10:21:57.381Z,1005.81
2018-05-14T10:22:57.335Z,1005.79
2018-05-14T10:23:57.357Z,1005.83
2018-05-14T10:24:57.371Z,1005.81
2018-05-14T10:25:57.395Z,1005.84
2018-05-14T10:26:57.400Z,1005.84
2018-05-14T10:27:57.393Z,1005.84
2018-05-14T10:28:57.419Z,1005.90
2018-05-14T10:29:57.414Z,1005.86
2018-05-14T10:30:57.427Z,1005.82
2018-05-14T10:31:57.466Z,1005.86
2018-05-14T10:32:57.459Z,1005.90
2018-05-14T10:33:57.449Z,1005.90
2018-05-14T10:34:57.457Z,1005.92
2018-05-14T10:35:57.468Z,1005.90
2018-05-14T10:36:57.481Z,1005.91
2018-05-14T10:37:57.494Z,1005.88
2018-05-14T10:38:57.498Z,1005.82
2018-05-14T10:39:57.521Z,1005.85
2018-05-14T10:40:57.524Z,1005.87
2018-05-14T10:41:57.534Z,1005.92
2018-05-14T10:42:57.544Z,1005.90
2018-05-14T10:43:57.555Z,1005.93
2018-05-14T10:44:57.565Z,1005.91
2018-05-14T10:45:57.575Z,1005.94
2018-05-14T10:46:57.695Z,1005.96
2018-05-14T10:47:57.601Z,1005.97
2018-05-14T10:48:57.623Z,1005.97
2018-05-14T10:49:57.651Z,1005.95
2018-05-14T10:50:57.630Z,1005.96
2018-05-14T10:51:57.661Z,1006.01
2018-05-14T10:52:57.748Z,1005.94
2018-05-14T10:53:57.688Z,1005.99
2018-05-14T10:54:57.700Z,1006.01
2018-05-14T10:55:57.702Z,1006.02
2018-05-14T10:56:57.695Z,1005.99
2018-05-14T10:57:57.721Z,1006.04
2018-05-14T10:58:57.751Z,1006.03
2018-05-14T10:59:57.731Z,1006.04
2018-05-14T11:00:57.739Z,1006.01
2018-05-14T11:01:57.747Z,1006.04
2018-05-14T11:02:57.813Z,1006.01
2018-05-14T11:03:57.798Z,1006.06
2018-05-14T11:04:57.784Z,1006.05
2018-05-14T11:05:57.794Z,1006.05
2018-05-14T11:06:57.806Z,1006.06
2018-05-14T11:07:57.816Z,1006.03
2018-05-14T11:08:57.823Z,1005.99
2018-05-14T11:09:57.835Z,1006.03
2018-05-14T11:10:57.847Z,1006.00
2018-05-14T11:11:57.864Z,1005.96
2018-05-14T11:12:57.873Z,1006.02
2018-05-14T11:13:57.906Z,1006.04
2018-05-14T11:14:57.890Z,1005.99
2018-05-14T11:15:57.900Z,1006.00
2018-05-14T11:16:57.912Z,1005.98
2018-05-14T11:17:57.919Z,1005.93
2018-05-14T11:18:57.925Z,1005.98
2018-05-14T11:19:57.963Z,1005.92
2018-05-14T11:20:57.957Z,1005.90
2018-05-14T11:21:57.961Z,1005.91
2018-05-14T11:22:57.975Z,1005.93
2018-05-14T11:23:57.993Z,1006.03
2018-05-14T11:24:58.008Z,1005.98
2018-05-14T11:25:58.044Z,1006.00
2018-05-14T11:26:58.019Z,1005.96
2018-05-14T11:27:58.156Z,1005.99
2018-05-14T11:28:58.033Z,1006.02
2018-05-14T11:29:58.048Z,1006.05
2018-05-14T11:30:58.051Z,1006.03
2018-05-14T11:31:58.062Z,1005.99
2018-05-14T11:32:58.074Z,1006.02
2018-05-14T11:33:58.088Z,1005.98
2018-05-14T11:34:58.097Z,1006.03
2018-05-14T11:35:58.101Z,1006.00
2018-05-14T11:36:58.116Z,1006.00
2018-05-14T11:37:58.134Z,1006.02
2018-05-14T11:38:58.136Z,1006.02
2018-05-14T11:39:58.145Z,1006.06
2018-05-14T11:40:58.220Z,1005.97
2018-05-14T11:41:58.165Z,1006.01
2018-05-14T11:42:58.177Z,1006.03
2018-05-14T11:43:58.186Z,1006.03
2018-05-14T11:44:58.200Z,1006.03
2018-05-14T11:45:58.207Z,1006.01
2018-05-14T11:46:58.243Z,1006.02
2018-05-14T11:47:58.223Z,1006.04
2018-05-14T11:48:58.233Z,1006.03
2018-05-14T11:49:58.242Z,1006.02
2018-05-14T11:50:58.251Z,1006.03
2018-05-14T11:51:58.263Z,1005.99
2018-05-14T11:52:58.287Z,1006.06
2018-05-14T11:53:58.284Z,1006.05
2018-05-14T11:54:58.310Z,1006.02
2018-05-14T11:55:58.315Z,1005.94
2018-05-14T11:56:58.327Z,1006.00
2018-05-14T11:57:58.316Z,1005.97
2018-05-14T11:58:58.332Z,1006.05
2018-05-14T11:59:58.347Z,1006.02
2018-05-14T12:00:58.352Z,1006.06
2018-05-14T12:01:58.364Z,1006.03
2018-05-14T12:02:58.526Z,1006.03
2018-05-14T12:03:58.379Z,1005.98
2018-05-14T12:04:58.415Z,1006.02
2018-05-14T12:05:58.389Z,1006.02
2018-05-14T12:06:58.400Z,1006.03
2018-05-14T12:07:58.406Z,1006.03
2018-05-14T12:08:58.420Z,1006.08
2018-05-14T12:09:58.471Z,1006.09
2018-05-14T12:10:58.438Z,1006.01
2018-05-14T12:11:58.448Z,1006.07
2018-05-14T12:12:58.461Z,1006.02
2018-05-14T12:13:58.466Z,1006.01
2018-05-14T12:14:58.473Z,1006.04
2018-05-14T12:15:58.483Z,1006.05
2018-05-14T12:16:58.497Z,1006.01
2018-05-14T12:17:58.550Z,1006.00
2018-05-14T12:18:58.513Z,1006.06
2018-05-14T12:19:58.518Z,1006.04
2018-05-14T12:20:58.527Z,1006.03
2018-05-14T12:21:58.539Z,1006.00
2018-05-14T12:22:58.546Z,1006.03
2018-05-14T12:23:58.554Z,1006.07
2018-05-14T12:24:58.565Z,1006.08
2018-05-14T12:25:58.572Z,1006.05
2018-05-14T12:26:58.589Z,1006.07
2018-05-14T12:27:58.592Z,1006.07
2018-05-14T12:28:58.599Z,1006.08
2018-05-14T12:29:58.608Z,1006.05
2018-05-14T12:30:58.622Z,1006.02
2018-05-14T12:31:58.713Z,1005.96
2018-05-14T12:32:58.637Z,1006.06
2018-05-14T12:33:58.642Z,1006.10